sensor_id;sensor_type;location;lat;lon;timestamp;P1;durP1;ratioP1;P2;durP2;ratioP2
4903;SDS011;2467;48.142;11.616;2024-02-26T00:00:05;4.68;;;4.32;;
4903;SDS011;2467;48.142;11.616;2024-02-26T00:00:41;6.28;;;4.70;;
4903;SDS011;2467;48.142;11.616;2024-02-26T00:01:13;5.20;;;4.70;;
4903;SDS011;2467;48.142;11.616;2024-02-26T00:01:45;5.32;;;4.90;;
4903;SDS011;2467;48.142;11.616;2024-02-26T00:02:17;5.22;;;4.72;;
4903;SDS011;2467;48.142;11.616;2024-02-26T00:02:50;4.65;;;4.22;;
4903;SDS011;2467;48.142;11.616;2024-02-26T00:03:22;5.40;;;4.43;;
4903;SDS011;2467;48.142;11.616;2024-02-26T00:03:55;5.10;;;4.70;;
4903;SDS011;2467;48.142;11.616;2024-02-26T00:04:30;6.30;;;5.45;;
4903;SDS011;2467;48.142;11.616;2024-02-26T00:05:03;5.20;;;4.70;;
4903;SDS011;2467;48.142;11.616;2024-02-26T00:05:36;5.47;;;4.97;;
4903;SDS011;2467;48.142;11.616;2024-02-26T00:06:10;4.82;;;4.43;;
4903;SDS011;2467;48.142;11.616;2024-02-26T00:06:42;5.65;;;5.22;;
4903;SDS011;2467;48.142;11.616;2024-02-26T00:07:14;5.65;;;5.15;;
4903;SDS011;2467;48.142;11.616;2024-02-26T00:07:46;5.88;;;5.30;;
4903;SDS011;2467;48.142;11.616;2024-02-26T00:08:20;5.50;;;5.00;;
4903;SDS011;2467;48.142;11.616;2024-02-26T00:08:52;5.50;;;4.80;;
4903;SDS011;2467;48.142;11.616;2024-02-26T00:09:25;4.78;;;4.38;;
4903;SDS011;2467;48.142;11.616;2024-02-26T00:09:57;5.32;;;4.22;;
4903;SDS011;2467;48.142;11.616;2024-02-26T00:10:28;4.70;;;4.30;;
4903;SDS011;2467;48.142;11.616;2024-02-26T00:11:02;5.00;;;4.60;;
4903;SDS011;2467;48.142;11.616;2024-02-26T00:11:35;4.38;;;3.97;;
4903;SDS011;2467;48.142;11.616;2024-02-26T00:12:07;4.38;;;4.05;;
4903;SDS011;2467;48.142;11.616;2024-02-26T00:12:39;4.45;;;4.07;;
4903;SDS011;2467;48.142;11.616;2024-02-26T00:13:12;4.50;;;4.20;;
4903;SDS011;2467;48.142;11.616;2024-02-26T00:13:45;4.80;;;4.30;;
4903;SDS011;2467;48.142;11.616;2024-02-26T00:14:17;6.10;;;4.38;;
4903;SDS011;2467;48.142;11.616;2024-02-26T00:14:50;5.05;;;4.55;;
4903;SDS011;2467;48.142;11.616;2024-02-26T00:15:25;5.32;;;4.93;;
4903;SDS011;2467;48.142;11.616;2024-02-26T00:15:59;4.70;;;4.30;;
4903;SDS011;2467;48.142;11.616;2024-02-26T00:16:33;4.85;;;4.45;;
4903;SDS011;2467;48.142;11.616;2024-02-26T00:17:05;4.57;;;4.13;;
4903;SDS011;2467;48.142;11.616;2024-02-26T00:17:38;4.18;;;3.83;;
4903;SDS011;2467;48.142;11.616;2024-02-26T00:18:10;4.70;;;4.03;;
4903;SDS011;2467;48.142;11.616;2024-02-26T00:18:42;8.88;;;4.55;;
4903;SDS011;2467;48.142;11.616;2024-02-26T00:19:19;5.20;;;4.80;;
4903;SDS011;2467;48.142;11.616;2024-02-26T00:19:51;5.45;;;4.95;;
4903;SDS011;2467;48.142;11.616;2024-02-26T00:20:23;4.70;;;4.30;;
4903;SDS011;2467;48.142;11.616;2024-02-26T00:20:57;4.30;;;3.90;;
4903;SDS011;2467;48.142;11.616;2024-02-26T00:21:29;4.78;;;4.40;;
4903;SDS011;2467;48.142;11.616;2024-02-26T00:22:01;5.97;;;4.47;;
4903;SDS011;2467;48.142;11.616;2024-02-26T00:22:32;5.53;;;4.28;;
4903;SDS011;2467;48.142;11.616;2024-02-26T00:23:05;4.65;;;4.25;;
4903;SDS011;2467;48.142;11.616;2024-02-26T00:23:37;4.90;;;4.50;;
4903;SDS011;2467;48.142;11.616;2024-02-26T00:24:10;5.13;;;4.72;;
4903;SDS011;2467;48.142;11.616;2024-02-26T00:24:42;4.30;;;3.95;;
4903;SDS011;2467;48.142;11.616;2024-02-26T00:25:15;4.82;;;4.43;;
4903;SDS011;2467;48.142;11.616;2024-02-26T00:25:47;4.55;;;4.15;;
4903;SDS011;2467;48.142;11.616;2024-02-26T00:26:19;7.15;;;4.55;;
4903;SDS011;2467;48.142;11.616;2024-02-26T00:26:52;4.75;;;4.07;;
4903;SDS011;2467;48.142;11.616;2024-02-26T00:27:26;4.47;;;4.07;;
4903;SDS011;2467;48.142;11.616;2024-02-26T00:27:58;4.70;;;4.30;;
4903;SDS011;2467;48.142;11.616;2024-02-26T00:28:30;5.85;;;5.35;;
4903;SDS011;2467;48.142;11.616;2024-02-26T00:29:03;5.28;;;4.05;;
4903;SDS011;2467;48.142;11.616;2024-02-26T00:29:35;4.78;;;4.38;;
4903;SDS011;2467;48.142;11.616;2024-02-26T00:30:09;4.70;;;4.30;;
4903;SDS011;2467;48.142;11.616;2024-02-26T00:30:41;4.28;;;3.88;;
4903;SDS011;2467;48.142;11.616;2024-02-26T00:31:14;4.40;;;4.00;;
4903;SDS011;2467;48.142;11.616;2024-02-26T00:31:46;4.50;;;4.10;;
4903;SDS011;2467;48.142;11.616;2024-02-26T00:32:19;5.13;;;4.72;;
4903;SDS011;2467;48.142;11.616;2024-02-26T00:32:50;3.92;;;3.63;;
4903;SDS011;2467;48.142;11.616;2024-02-26T00:33:23;4.82;;;4.30;;
4903;SDS011;2467;48.142;11.616;2024-02-26T00:33:56;4.28;;;3.90;;
4903;SDS011;2467;48.142;11.616;2024-02-26T00:34:28;4.97;;;4.45;;
4903;SDS011;2467;48.142;11.616;2024-02-26T00:35:00;4.78;;;4.38;;
4903;SDS011;2467;48.142;11.616;2024-02-26T00:35:33;4.55;;;4.13;;
4903;SDS011;2467;48.142;11.616;2024-02-26T00:36:05;4.47;;;4.07;;
4903;SDS011;2467;48.142;11.616;2024-02-26T00:36:38;4.60;;;4.10;;
4903;SDS011;2467;48.142;11.616;2024-02-26T00:37:10;4.78;;;4.43;;
4903;SDS011;2467;48.142;11.616;2024-02-26T00:37:43;9.10;;;3.75;;
4903;SDS011;2467;48.142;11.616;2024-02-26T00:38:15;5.10;;;4.32;;
4903;SDS011;2467;48.142;11.616;2024-02-26T00:38:47;5.40;;;4.65;;
4903;SDS011;2467;48.142;11.616;2024-02-26T00:39:22;4.75;;;4.30;;
4903;SDS011;2467;48.142;11.616;2024-02-26T00:39:54;5.43;;;4.72;;
4903;SDS011;2467;48.142;11.616;2024-02-26T00:40:26;5.50;;;4.70;;
4903;SDS011;2467;48.142;11.616;2024-02-26T00:40:58;4.15;;;3.85;;
4903;SDS011;2467;48.142;11.616;2024-02-26T00:41:31;4.20;;;3.85;;
4903;SDS011;2467;48.142;11.616;2024-02-26T00:42:03;4.68;;;3.90;;
4903;SDS011;2467;48.142;11.616;2024-02-26T00:42:36;4.13;;;3.72;;
4903;SDS011;2467;48.142;11.616;2024-02-26T00:43:09;4.60;;;4.10;;
4903;SDS011;2467;48.142;11.616;2024-02-26T00:43:41;4.57;;;4.05;;
4903;SDS011;2467;48.142;11.616;2024-02-26T00:44:13;4.57;;;4.10;;
4903;SDS011;2467;48.142;11.616;2024-02-26T00:44:45;4.80;;;4.30;;
4903;SDS011;2467;48.142;11.616;2024-02-26T00:45:19;4.78;;;4.20;;
4903;SDS011;2467;48.142;11.616;2024-02-26T00:45:52;4.43;;;3.95;;
4903;SDS011;2467;48.142;11.616;2024-02-26T00:46:24;4.25;;;3.85;;
4903;SDS011;2467;48.142;11.616;2024-02-26T00:46:56;4.20;;;3.75;;
4903;SDS011;2467;48.142;11.616;2024-02-26T00:47:28;4.05;;;3.75;;
4903;SDS011;2467;48.142;11.616;2024-02-26T00:48:01;4.60;;;4.20;;
4903;SDS011;2467;48.142;11.616;2024-02-26T00:48:36;5.40;;;4.72;;
4903;SDS011;2467;48.142;11.616;2024-02-26T00:49:08;4.80;;;4.40;;
4903;SDS011;2467;48.142;11.616;2024-02-26T00:49:40;4.63;;;4.32;;
4903;SDS011;2467;48.142;11.616;2024-02-26T00:50:14;4.72;;;4.18;;
4903;SDS011;2467;48.142;11.616;2024-02-26T00:50:46;4.15;;;3.83;;
4903;SDS011;2467;48.142;11.616;2024-02-26T00:51:18;4.40;;;4.00;;
4903;SDS011;2467;48.142;11.616;2024-02-26T00:51:54;4.10;;;3.80;;
4903;SDS011;2467;48.142;11.616;2024-02-26T00:52:27;4.75;;;4.20;;
4903;SDS011;2467;48.142;11.616;2024-02-26T00:52:59;4.20;;;3.83;;
4903;SDS011;2467;48.142;11.616;2024-02-26T00:53:31;4.25;;;3.95;;
4903;SDS011;2467;48.142;11.616;2024-02-26T00:54:03;5.13;;;4.05;;
4903;SDS011;2467;48.142;11.616;2024-02-26T00:54:36;5.40;;;4.03;;
4903;SDS011;2467;48.142;11.616;2024-02-26T00:55:08;4.20;;;3.90;;
4903;SDS011;2467;48.142;11.616;2024-02-26T00:55:40;3.60;;;3.28;;
4903;SDS011;2467;48.142;11.616;2024-02-26T00:56:12;8.68;;;4.10;;
4903;SDS011;2467;48.142;11.616;2024-02-26T00:56:45;4.57;;;4.10;;
4903;SDS011;2467;48.142;11.616;2024-02-26T00:57:17;4.82;;;4.38;;
4903;SDS011;2467;48.142;11.616;2024-02-26T00:57:49;4.22;;;3.92;;
4903;SDS011;2467;48.142;11.616;2024-02-26T00:58:22;4.15;;;3.80;;
4903;SDS011;2467;48.142;11.616;2024-02-26T00:58:54;4.20;;;3.80;;
4903;SDS011;2467;48.142;11.616;2024-02-26T00:59:26;4.40;;;4.07;;
4903;SDS011;2467;48.142;11.616;2024-02-26T00:59:58;4.85;;;4.10;;
4903;SDS011;2467;48.142;11.616;2024-02-26T01:00:33;3.75;;;3.45;;
4903;SDS011;2467;48.142;11.616;2024-02-26T01:01:05;4.25;;;3.85;;
4903;SDS011;2467;48.142;11.616;2024-02-26T01:01:37;5.93;;;5.43;;
4903;SDS011;2467;48.142;11.616;2024-02-26T01:02:09;4.28;;;3.90;;
4903;SDS011;2467;48.142;11.616;2024-02-26T01:02:42;3.97;;;3.60;;
4903;SDS011;2467;48.142;11.616;2024-02-26T01:03:14;4.10;;;3.80;;
4903;SDS011;2467;48.142;11.616;2024-02-26T01:03:46;3.55;;;3.25;;
4903;SDS011;2467;48.142;11.616;2024-02-26T01:04:18;4.38;;;3.90;;
4903;SDS011;2467;48.142;11.616;2024-02-26T01:04:51;4.13;;;3.80;;
4903;SDS011;2467;48.142;11.616;2024-02-26T01:05:24;4.15;;;3.75;;
4903;SDS011;2467;48.142;11.616;2024-02-26T01:05:55;4.47;;;4.07;;
4903;SDS011;2467;48.142;11.616;2024-02-26T01:06:30;4.47;;;4.07;;
4903;SDS011;2467;48.142;11.616;2024-02-26T01:07:03;4.07;;;3.75;;
4903;SDS011;2467;48.142;11.616;2024-02-26T01:07:35;4.00;;;3.58;;
4903;SDS011;2467;48.142;11.616;2024-02-26T01:08:08;3.40;;;3.15;;
4903;SDS011;2467;48.142;11.616;2024-02-26T01:08:41;3.55;;;3.25;;
4903;SDS011;2467;48.142;11.616;2024-02-26T01:09:13;4.07;;;3.78;;
4903;SDS011;2467;48.142;11.616;2024-02-26T01:09:45;3.88;;;3.58;;
4903;SDS011;2467;48.142;11.616;2024-02-26T01:10:18;4.10;;;3.80;;
4903;SDS011;2467;48.142;11.616;2024-02-26T01:10:50;4.63;;;4.22;;
4903;SDS011;2467;48.142;11.616;2024-02-26T01:11:22;3.75;;;3.55;;
4903;SDS011;2467;48.142;11.616;2024-02-26T01:11:55;4.78;;;4.38;;
4903;SDS011;2467;48.142;11.616;2024-02-26T01:12:27;4.40;;;3.80;;
4903;SDS011;2467;48.142;11.616;2024-02-26T01:12:59;4.68;;;4.28;;
4903;SDS011;2467;48.142;11.616;2024-02-26T01:13:31;4.05;;;3.60;;
4903;SDS011;2467;48.142;11.616;2024-02-26T01:14:04;4.15;;;3.45;;
4903;SDS011;2467;48.142;11.616;2024-02-26T01:14:37;3.85;;;3.55;;
4903;SDS011;2467;48.142;11.616;2024-02-26T01:15:09;3.80;;;3.30;;
4903;SDS011;2467;48.142;11.616;2024-02-26T01:15:43;5.15;;;4.65;;
4903;SDS011;2467;48.142;11.616;2024-02-26T01:16:16;3.60;;;3.30;;
4903;SDS011;2467;48.142;11.616;2024-02-26T01:16:49;4.43;;;4.03;;
4903;SDS011;2467;48.142;11.616;2024-02-26T01:17:21;4.28;;;3.88;;
4903;SDS011;2467;48.142;11.616;2024-02-26T01:17:53;4.00;;;3.70;;
4903;SDS011;2467;48.142;11.616;2024-02-26T01:18:26;3.97;;;3.65;;
4903;SDS011;2467;48.142;11.616;2024-02-26T01:18:58;5.47;;;4.95;;
4903;SDS011;2467;48.142;11.616;2024-02-26T01:19:30;4.32;;;3.90;;
4903;SDS011;2467;48.142;11.616;2024-02-26T01:20:04;4.30;;;3.90;;
4903;SDS011;2467;48.142;11.616;2024-02-26T01:20:36;3.83;;;3.40;;
4903;SDS011;2467;48.142;11.616;2024-02-26T01:21:08;3.90;;;3.60;;
4903;SDS011;2467;48.142;11.616;2024-02-26T01:21:40;4.03;;;3.63;;
4903;SDS011;2467;48.142;11.616;2024-02-26T01:22:13;4.35;;;3.95;;
4903;SDS011;2467;48.142;11.616;2024-02-26T01:22:45;4.43;;;4.05;;
4903;SDS011;2467;48.142;11.616;2024-02-26T01:23:18;4.65;;;4.35;;
4903;SDS011;2467;48.142;11.616;2024-02-26T01:23:49;4.38;;;3.97;;
4903;SDS011;2467;48.142;11.616;2024-02-26T01:24:22;3.88;;;3.50;;
4903;SDS011;2467;48.142;11.616;2024-02-26T01:24:54;3.47;;;3.15;;
4903;SDS011;2467;48.142;11.616;2024-02-26T01:25:28;4.40;;;4.00;;
4903;SDS011;2467;48.142;11.616;2024-02-26T01:26:00;3.10;;;2.90;;
4903;SDS011;2467;48.142;11.616;2024-02-26T01:26:33;4.15;;;3.78;;
4903;SDS011;2467;48.142;11.616;2024-02-26T01:27:05;5.00;;;4.50;;
4903;SDS011;2467;48.142;11.616;2024-02-26T01:27:39;3.70;;;3.40;;
4903;SDS011;2467;48.142;11.616;2024-02-26T01:28:15;4.07;;;3.78;;
4903;SDS011;2467;48.142;11.616;2024-02-26T01:28:47;4.20;;;3.80;;
4903;SDS011;2467;48.142;11.616;2024-02-26T01:29:19;4.80;;;4.40;;
4903;SDS011;2467;48.142;11.616;2024-02-26T01:29:52;5.03;;;3.45;;
4903;SDS011;2467;48.142;11.616;2024-02-26T01:30:24;3.65;;;3.25;;
4903;SDS011;2467;48.142;11.616;2024-02-26T01:30:58;4.38;;;4.00;;
4903;SDS011;2467;48.142;11.616;2024-02-26T01:31:31;4.25;;;3.95;;
4903;SDS011;2467;48.142;11.616;2024-02-26T01:32:04;4.05;;;3.75;;
4903;SDS011;2467;48.142;11.616;2024-02-26T01:32:37;3.63;;;3.33;;
4903;SDS011;2467;48.142;11.616;2024-02-26T01:33:09;3.90;;;3.42;;
4903;SDS011;2467;48.142;11.616;2024-02-26T01:33:41;4.90;;;4.40;;
4903;SDS011;2467;48.142;11.616;2024-02-26T01:34:14;4.00;;;3.65;;
4903;SDS011;2467;48.142;11.616;2024-02-26T01:34:47;4.07;;;3.72;;
4903;SDS011;2467;48.142;11.616;2024-02-26T01:35:19;3.60;;;3.30;;
4903;SDS011;2467;48.142;11.616;2024-02-26T01:35:51;3.95;;;3.58;;
4903;SDS011;2467;48.142;11.616;2024-02-26T01:36:24;4.25;;;3.90;;
4903;SDS011;2467;48.142;11.616;2024-02-26T01:36:57;4.38;;;3.78;;
4903;SDS011;2467;48.142;11.616;2024-02-26T01:37:28;4.10;;;3.75;;
4903;SDS011;2467;48.142;11.616;2024-02-26T01:38:01;3.92;;;3.63;;
4903;SDS011;2467;48.142;11.616;2024-02-26T01:38:34;3.83;;;3.53;;
4903;SDS011;2467;48.142;11.616;2024-02-26T01:39:05;5.10;;;3.92;;
4903;SDS011;2467;48.142;11.616;2024-02-26T01:39:37;3.88;;;3.53;;
4903;SDS011;2467;48.142;11.616;2024-02-26T01:40:11;3.90;;;3.60;;
4903;SDS011;2467;48.142;11.616;2024-02-26T01:40:49;4.45;;;4.05;;
4903;SDS011;2467;48.142;11.616;2024-02-26T01:41:21;4.13;;;3.80;;
4903;SDS011;2467;48.142;11.616;2024-02-26T01:41:53;4.43;;;3.72;;
4903;SDS011;2467;48.142;11.616;2024-02-26T01:42:26;4.53;;;3.40;;
4903;SDS011;2467;48.142;11.616;2024-02-26T01:42:58;4.07;;;3.65;;
4903;SDS011;2467;48.142;11.616;2024-02-26T01:43:30;4.22;;;3.75;;
4903;SDS011;2467;48.142;11.616;2024-02-26T01:44:03;3.80;;;3.40;;
4903;SDS011;2467;48.142;11.616;2024-02-26T01:44:35;5.47;;;3.92;;
4903;SDS011;2467;48.142;11.616;2024-02-26T01:45:09;4.47;;;3.72;;
4903;SDS011;2467;48.142;11.616;2024-02-26T01:45:47;4.00;;;3.70;;
4903;SDS011;2467;48.142;11.616;2024-02-26T01:46:21;4.43;;;4.03;;
4903;SDS011;2467;48.142;11.616;2024-02-26T01:46:54;4.90;;;3.70;;
4903;SDS011;2467;48.142;11.616;2024-02-26T01:47:26;4.07;;;3.67;;
4903;SDS011;2467;48.142;11.616;2024-02-26T01:48:00;4.35;;;3.95;;
4903;SDS011;2467;48.142;11.616;2024-02-26T01:48:33;3.70;;;3.40;;
4903;SDS011;2467;48.142;11.616;2024-02-26T01:49:05;3.75;;;3.45;;
4903;SDS011;2467;48.142;11.616;2024-02-26T01:49:40;3.80;;;3.50;;
4903;SDS011;2467;48.142;11.616;2024-02-26T01:50:12;4.20;;;3.80;;
4903;SDS011;2467;48.142;11.616;2024-02-26T01:50:44;3.80;;;3.50;;
4903;SDS011;2467;48.142;11.616;2024-02-26T01:51:16;4.07;;;3.78;;
4903;SDS011;2467;48.142;11.616;2024-02-26T01:51:49;4.20;;;3.90;;
4903;SDS011;2467;48.142;11.616;2024-02-26T01:52:22;5.55;;;4.07;;
4903;SDS011;2467;48.142;11.616;2024-02-26T01:52:54;5.20;;;4.65;;
4903;SDS011;2467;48.142;11.616;2024-02-26T01:53:27;3.83;;;3.42;;
4903;SDS011;2467;48.142;11.616;2024-02-26T01:54:00;5.30;;;3.15;;
4903;SDS011;2467;48.142;11.616;2024-02-26T01:54:35;4.10;;;3.75;;
4903;SDS011;2467;48.142;11.616;2024-02-26T01:55:09;4.05;;;3.67;;
4903;SDS011;2467;48.142;11.616;2024-02-26T01:55:41;4.95;;;3.50;;
4903;SDS011;2467;48.142;11.616;2024-02-26T01:56:13;3.30;;;3.10;;
4903;SDS011;2467;48.142;11.616;2024-02-26T01:56:49;4.30;;;3.70;;
4903;SDS011;2467;48.142;11.616;2024-02-26T01:57:22;3.35;;;3.05;;
4903;SDS011;2467;48.142;11.616;2024-02-26T01:57:54;3.78;;;3.47;;
4903;SDS011;2467;48.142;11.616;2024-02-26T01:58:27;4.20;;;3.80;;
4903;SDS011;2467;48.142;11.616;2024-02-26T01:59:01;3.40;;;3.10;;
4903;SDS011;2467;48.142;11.616;2024-02-26T01:59:35;4.60;;;4.13;;
4903;SDS011;2467;48.142;11.616;2024-02-26T02:00:07;3.90;;;3.60;;
4903;SDS011;2467;48.142;11.616;2024-02-26T02:00:40;5.10;;;2.92;;
4903;SDS011;2467;48.142;11.616;2024-02-26T02:01:13;4.68;;;3.92;;
4903;SDS011;2467;48.142;11.616;2024-02-26T02:01:50;3.33;;;3.03;;
4903;SDS011;2467;48.142;11.616;2024-02-26T02:02:26;3.53;;;3.22;;
4903;SDS011;2467;48.142;11.616;2024-02-26T02:02:58;3.55;;;3.25;;
4903;SDS011;2467;48.142;11.616;2024-02-26T02:03:31;3.33;;;2.95;;
4903;SDS011;2467;48.142;11.616;2024-02-26T02:04:03;3.70;;;3.40;;
4903;SDS011;2467;48.142;11.616;2024-02-26T02:04:36;3.42;;;3.13;;
4903;SDS011;2467;48.142;11.616;2024-02-26T02:05:08;4.30;;;3.03;;
4903;SDS011;2467;48.142;11.616;2024-02-26T02:05:42;4.20;;;3.50;;
4903;SDS011;2467;48.142;11.616;2024-02-26T02:06:15;4.10;;;3.70;;
4903;SDS011;2467;48.142;11.616;2024-02-26T02:06:47;2.85;;;2.65;;
4903;SDS011;2467;48.142;11.616;2024-02-26T02:07:20;3.72;;;3.42;;
4903;SDS011;2467;48.142;11.616;2024-02-26T02:07:55;3.45;;;3.15;;
4903;SDS011;2467;48.142;11.616;2024-02-26T02:08:27;3.67;;;3.42;;
4903;SDS011;2467;48.142;11.616;2024-02-26T02:08:59;3.53;;;3.22;;
4903;SDS011;2467;48.142;11.616;2024-02-26T02:09:37;3.05;;;2.85;;
4903;SDS011;2467;48.142;11.616;2024-02-26T02:10:10;3.67;;;3.28;;
4903;SDS011;2467;48.142;11.616;2024-02-26T02:10:42;3.65;;;3.00;;
4903;SDS011;2467;48.142;11.616;2024-02-26T02:11:15;3.70;;;3.40;;
4903;SDS011;2467;48.142;11.616;2024-02-26T02:11:47;4.00;;;3.60;;
4903;SDS011;2467;48.142;11.616;2024-02-26T02:12:21;3.10;;;2.90;;
4903;SDS011;2467;48.142;11.616;2024-02-26T02:12:53;3.88;;;3.55;;
4903;SDS011;2467;48.142;11.616;2024-02-26T02:13:25;3.28;;;2.90;;
4903;SDS011;2467;48.142;11.616;2024-02-26T02:13:58;3.75;;;3.17;;
4903;SDS011;2467;48.142;11.616;2024-02-26T02:14:30;4.43;;;3.20;;
4903;SDS011;2467;48.142;11.616;2024-02-26T02:15:02;4.75;;;3.45;;
4903;SDS011;2467;48.142;11.616;2024-02-26T02:15:35;5.93;;;3.97;;
4903;SDS011;2467;48.142;11.616;2024-02-26T02:16:08;3.42;;;3.22;;
4903;SDS011;2467;48.142;11.616;2024-02-26T02:16:40;4.05;;;3.75;;
4903;SDS011;2467;48.142;11.616;2024-02-26T02:17:13;3.40;;;3.20;;
4903;SDS011;2467;48.142;11.616;2024-02-26T02:17:46;4.22;;;3.40;;
4903;SDS011;2467;48.142;11.616;2024-02-26T02:18:19;3.00;;;2.80;;
4903;SDS011;2467;48.142;11.616;2024-02-26T02:18:51;3.13;;;2.92;;
4903;SDS011;2467;48.142;11.616;2024-02-26T02:19:23;4.28;;;3.88;;
4903;SDS011;2467;48.142;11.616;2024-02-26T02:19:56;4.70;;;3.72;;
4903;SDS011;2467;48.142;11.616;2024-02-26T02:20:32;4.07;;;3.75;;
4903;SDS011;2467;48.142;11.616;2024-02-26T02:21:05;3.40;;;2.95;;
4903;SDS011;2467;48.142;11.616;2024-02-26T02:21:37;3.38;;;3.15;;
4903;SDS011;2467;48.142;11.616;2024-02-26T02:22:09;3.22;;;2.92;;
4903;SDS011;2467;48.142;11.616;2024-02-26T02:22:42;3.45;;;3.15;;
4903;SDS011;2467;48.142;11.616;2024-02-26T02:23:14;4.22;;;3.35;;
4903;SDS011;2467;48.142;11.616;2024-02-26T02:23:46;4.45;;;4.10;;
4903;SDS011;2467;48.142;11.616;2024-02-26T02:24:20;5.50;;;4.57;;
4903;SDS011;2467;48.142;11.616;2024-02-26T02:24:53;3.35;;;3.05;;
4903;SDS011;2467;48.142;11.616;2024-02-26T02:25:25;4.30;;;2.80;;
4903;SDS011;2467;48.142;11.616;2024-02-26T02:25:57;3.88;;;3.60;;
4903;SDS011;2467;48.142;11.616;2024-02-26T02:26:31;3.30;;;3.08;;
4903;SDS011;2467;48.142;11.616;2024-02-26T02:27:03;4.30;;;3.47;;
4903;SDS011;2467;48.142;11.616;2024-02-26T02:27:35;2.95;;;2.75;;
4903;SDS011;2467;48.142;11.616;2024-02-26T02:28:07;3.63;;;3.33;;
4903;SDS011;2467;48.142;11.616;2024-02-26T02:28:41;3.50;;;3.20;;
4903;SDS011;2467;48.142;11.616;2024-02-26T02:29:13;3.63;;;3.25;;
4903;SDS011;2467;48.142;11.616;2024-02-26T02:29:46;4.63;;;3.55;;
4903;SDS011;2467;48.142;11.616;2024-02-26T02:30:19;3.70;;;3.28;;
4903;SDS011;2467;48.142;11.616;2024-02-26T02:30:53;5.20;;;3.50;;
4903;SDS011;2467;48.142;11.616;2024-02-26T02:31:26;3.47;;;3.17;;
4903;SDS011;2467;48.142;11.616;2024-02-26T02:31:58;3.90;;;3.53;;
4903;SDS011;2467;48.142;11.616;2024-02-26T02:32:33;3.70;;;3.40;;
4903;SDS011;2467;48.142;11.616;2024-02-26T02:33:06;3.60;;;3.30;;
4903;SDS011;2467;48.142;11.616;2024-02-26T02:33:39;3.22;;;2.70;;
4903;SDS011;2467;48.142;11.616;2024-02-26T02:34:11;3.83;;;3.53;;
4903;SDS011;2467;48.142;11.616;2024-02-26T02:34:45;3.22;;;3.03;;
4903;SDS011;2467;48.142;11.616;2024-02-26T02:35:18;3.40;;;3.10;;
4903;SDS011;2467;48.142;11.616;2024-02-26T02:35:51;2.80;;;2.60;;
4903;SDS011;2467;48.142;11.616;2024-02-26T02:36:25;3.95;;;3.58;;
4903;SDS011;2467;48.142;11.616;2024-02-26T02:36:58;3.55;;;3.25;;
4903;SDS011;2467;48.142;11.616;2024-02-26T02:37:30;3.90;;;2.72;;
4903;SDS011;2467;48.142;11.616;2024-02-26T02:38:02;6.05;;;5.22;;
4903;SDS011;2467;48.142;11.616;2024-02-26T02:38:36;3.38;;;2.90;;
4903;SDS011;2467;48.142;11.616;2024-02-26T02:39:08;3.25;;;3.03;;
4903;SDS011;2467;48.142;11.616;2024-02-26T02:39:40;3.75;;;3.38;;
4903;SDS011;2467;48.142;11.616;2024-02-26T02:40:14;3.15;;;2.83;;
4903;SDS011;2467;48.142;11.616;2024-02-26T02:40:47;3.30;;;2.78;;
4903;SDS011;2467;48.142;11.616;2024-02-26T02:41:19;3.40;;;3.00;;
4903;SDS011;2467;48.142;11.616;2024-02-26T02:41:51;3.53;;;3.05;;
4903;SDS011;2467;48.142;11.616;2024-02-26T02:42:23;3.63;;;3.33;;
4903;SDS011;2467;48.142;11.616;2024-02-26T02:42:55;3.55;;;3.35;;
4903;SDS011;2467;48.142;11.616;2024-02-26T02:43:28;3.25;;;2.95;;
4903;SDS011;2467;48.142;11.616;2024-02-26T02:44:00;3.80;;;2.85;;
4903;SDS011;2467;48.142;11.616;2024-02-26T02:44:33;3.75;;;3.35;;
4903;SDS011;2467;48.142;11.616;2024-02-26T02:45:06;3.70;;;3.40;;
4903;SDS011;2467;48.142;11.616;2024-02-26T02:45:39;4.63;;;3.15;;
4903;SDS011;2467;48.142;11.616;2024-02-26T02:46:11;3.10;;;2.80;;
4903;SDS011;2467;48.142;11.616;2024-02-26T02:46:43;3.35;;;3.05;;
4903;SDS011;2467;48.142;11.616;2024-02-26T02:47:15;3.03;;;2.80;;
4903;SDS011;2467;48.142;11.616;2024-02-26T02:47:47;2.88;;;2.67;;
4903;SDS011;2467;48.142;11.616;2024-02-26T02:48:20;2.85;;;2.65;;
4903;SDS011;2467;48.142;11.616;2024-02-26T02:48:52;3.85;;;3.50;;
4903;SDS011;2467;48.142;11.616;2024-02-26T02:49:25;4.55;;;3.15;;
4903;SDS011;2467;48.142;11.616;2024-02-26T02:49:57;3.38;;;3.13;;
4903;SDS011;2467;48.142;11.616;2024-02-26T02:50:30;3.20;;;2.90;;
4903;SDS011;2467;48.142;11.616;2024-02-26T02:51:03;4.18;;;3.80;;
4903;SDS011;2467;48.142;11.616;2024-02-26T02:51:36;3.40;;;3.10;;
4903;SDS011;2467;48.142;11.616;2024-02-26T02:52:08;2.83;;;2.53;;
4903;SDS011;2467;48.142;11.616;2024-02-26T02:52:41;3.83;;;3.50;;
4903;SDS011;2467;48.142;11.616;2024-02-26T02:53:13;3.38;;;3.08;;
4903;SDS011;2467;48.142;11.616;2024-02-26T02:53:47;4.15;;;3.00;;
4903;SDS011;2467;48.142;11.616;2024-02-26T02:54:19;3.10;;;2.80;;
4903;SDS011;2467;48.142;11.616;2024-02-26T02:54:52;3.10;;;2.90;;
4903;SDS011;2467;48.142;11.616;2024-02-26T02:55:24;3.30;;;3.03;;
4903;SDS011;2467;48.142;11.616;2024-02-26T02:55:56;3.42;;;3.13;;
4903;SDS011;2467;48.142;11.616;2024-02-26T02:56:28;3.45;;;3.25;;
4903;SDS011;2467;48.142;11.616;2024-02-26T02:57:01;3.30;;;3.10;;
4903;SDS011;2467;48.142;11.616;2024-02-26T02:57:34;2.53;;;2.33;;
4903;SDS011;2467;48.142;11.616;2024-02-26T02:58:12;3.38;;;3.08;;
4903;SDS011;2467;48.142;11.616;2024-02-26T02:58:45;3.03;;;2.72;;
4903;SDS011;2467;48.142;11.616;2024-02-26T02:59:17;3.03;;;2.83;;
4903;SDS011;2467;48.142;11.616;2024-02-26T02:59:49;4.45;;;3.22;;
4903;SDS011;2467;48.142;11.616;2024-02-26T03:00:21;3.03;;;2.83;;
4903;SDS011;2467;48.142;11.616;2024-02-26T03:00:55;3.50;;;3.20;;
4903;SDS011;2467;48.142;11.616;2024-02-26T03:01:27;3.17;;;2.97;;
4903;SDS011;2467;48.142;11.616;2024-02-26T03:01:59;3.03;;;2.72;;
4903;SDS011;2467;48.142;11.616;2024-02-26T03:02:30;3.47;;;3.20;;
4903;SDS011;2467;48.142;11.616;2024-02-26T03:03:04;3.22;;;2.92;;
4903;SDS011;2467;48.142;11.616;2024-02-26T03:03:37;3.53;;;3.22;;
4903;SDS011;2467;48.142;11.616;2024-02-26T03:04:09;3.80;;;3.47;;
4903;SDS011;2467;48.142;11.616;2024-02-26T03:04:41;3.15;;;2.95;;
4903;SDS011;2467;48.142;11.616;2024-02-26T03:05:14;2.42;;;2.30;;
4903;SDS011;2467;48.142;11.616;2024-02-26T03:05:47;3.75;;;3.40;;
4903;SDS011;2467;48.142;11.616;2024-02-26T03:06:20;4.53;;;3.45;;
4903;SDS011;2467;48.142;11.616;2024-02-26T03:06:53;3.10;;;2.80;;
4903;SDS011;2467;48.142;11.616;2024-02-26T03:07:26;3.00;;;2.80;;
4903;SDS011;2467;48.142;11.616;2024-02-26T03:07:58;3.67;;;3.38;;
4903;SDS011;2467;48.142;11.616;2024-02-26T03:08:30;3.10;;;2.90;;
4903;SDS011;2467;48.142;11.616;2024-02-26T03:09:03;3.60;;;3.30;;
4903;SDS011;2467;48.142;11.616;2024-02-26T03:09:35;4.95;;;4.55;;
4903;SDS011;2467;48.142;11.616;2024-02-26T03:10:07;5.15;;;3.85;;
4903;SDS011;2467;48.142;11.616;2024-02-26T03:10:39;3.22;;;3.00;;
4903;SDS011;2467;48.142;11.616;2024-02-26T03:11:14;3.00;;;2.80;;
4903;SDS011;2467;48.142;11.616;2024-02-26T03:11:47;3.53;;;3.22;;
4903;SDS011;2467;48.142;11.616;2024-02-26T03:12:19;3.25;;;2.95;;
4903;SDS011;2467;48.142;11.616;2024-02-26T03:12:51;4.50;;;3.30;;
4903;SDS011;2467;48.142;11.616;2024-02-26T03:13:24;3.45;;;3.15;;
4903;SDS011;2467;48.142;11.616;2024-02-26T03:13:56;3.40;;;3.15;;
4903;SDS011;2467;48.142;11.616;2024-02-26T03:14:28;4.40;;;4.10;;
4903;SDS011;2467;48.142;11.616;2024-02-26T03:15:00;3.58;;;2.95;;
4903;SDS011;2467;48.142;11.616;2024-02-26T03:15:34;2.90;;;2.70;;
4903;SDS011;2467;48.142;11.616;2024-02-26T03:16:06;3.22;;;3.03;;
4903;SDS011;2467;48.142;11.616;2024-02-26T03:16:38;3.58;;;3.28;;
4903;SDS011;2467;48.142;11.616;2024-02-26T03:17:11;2.55;;;2.35;;
4903;SDS011;2467;48.142;11.616;2024-02-26T03:17:44;3.97;;;3.13;;
4903;SDS011;2467;48.142;11.616;2024-02-26T03:18:16;3.97;;;3.22;;
4903;SDS011;2467;48.142;11.616;2024-02-26T03:18:51;3.53;;;3.22;;
4903;SDS011;2467;48.142;11.616;2024-02-26T03:19:23;3.38;;;3.08;;
4903;SDS011;2467;48.142;11.616;2024-02-26T03:19:57;3.38;;;3.17;;